TAF PAGK
PAGK 090537Z 0906/1006 VRB05KT P6SM FEW020 BKN050=
METAR PAGK
WC PAGK
WS PAGK
WV PAGK